sensor_id;sensor_type;location;lat;lon;timestamp;pressure;altitude;pressure_sealevel;temperature;humidity
67840;BME280;54636;51.684;5.142;2023-04-10T00:01:27;102101.94;;;8.36;82.56
67840;BME280;54636;51.684;5.142;2023-04-10T00:03:52;102110.63;;;8.43;82.58
67840;BME280;54636;51.684;5.142;2023-04-10T00:06:18;102100.75;;;8.37;82.70
67840;BME280;54636;51.684;5.142;2023-04-10T00:08:43;102097.72;;;8.35;83.58
67840;BME280;54636;51.684;5.142;2023-04-10T00:11:08;102072.69;;;8.18;83.79
67840;BME280;54636;51.684;5.142;2023-04-10T00:13:34;102075.41;;;8.31;83.43
67840;BME280;54636;51.684;5.142;2023-04-10T00:15:59;102044.97;;;8.01;84.01
67840;BME280;54636;51.684;5.142;2023-04-10T00:18:25;102084.50;;;8.24;83.56
67840;BME280;54636;51.684;5.142;2023-04-10T00:20:50;102059.69;;;8.13;84.02
67840;BME280;54636;51.684;5.142;2023-04-10T00:23:16;102041.94;;;7.99;83.92
67840;BME280;54636;51.684;5.142;2023-04-10T00:25:41;102066.28;;;8.24;84.48
67840;BME280;54636;51.684;5.142;2023-04-10T00:28:06;102063.91;;;8.14;84.61
67840;BME280;54636;51.684;5.142;2023-04-10T00:30:32;102058.06;;;8.15;84.51
67840;BME280;54636;51.684;5.142;2023-04-10T00:32:57;102040.75;;;8.00;84.53
67840;BME280;54636;51.684;5.142;2023-04-10T00:35:23;102057.63;;;8.04;85.27
67840;BME280;54636;51.684;5.142;2023-04-10T00:37:48;102051.56;;;8.00;85.81
67840;BME280;54636;51.684;5.142;2023-04-10T00:40:15;102053.72;;;8.05;85.54
67840;BME280;54636;51.684;5.142;2023-04-10T00:42:40;102049.94;;;8.03;85.51
67840;BME280;54636;51.684;5.142;2023-04-10T00:45:06;102037.25;;;7.87;85.93
67840;BME280;54636;51.684;5.142;2023-04-10T00:47:32;102047.44;;;7.96;85.91
67840;BME280;54636;51.684;5.142;2023-04-10T00:49:58;102041.91;;;7.86;85.69
67840;BME280;54636;51.684;5.142;2023-04-10T00:52:24;102055.22;;;7.93;85.82
67840;BME280;54636;51.684;5.142;2023-04-10T00:54:50;102052.72;;;7.86;86.51
67840;BME280;54636;51.684;5.142;2023-04-10T00:57:16;102057.72;;;7.88;86.06
67840;BME280;54636;51.684;5.142;2023-04-10T00:59:42;102060.22;;;7.95;85.49
67840;BME280;54636;51.684;5.142;2023-04-10T01:02:08;102039.63;;;7.85;85.90
67840;BME280;54636;51.684;5.142;2023-04-10T01:04:35;102051.22;;;7.98;85.75
67840;BME280;54636;51.684;5.142;2023-04-10T01:07:08;102043.66;;;7.93;85.76
67840;BME280;54636;51.684;5.142;2023-04-10T01:09:44;102046.34;;;7.93;85.59
67840;BME280;54636;51.684;5.142;2023-04-10T01:15:08;102043.22;;;7.94;86.12
67840;BME280;54636;51.684;5.142;2023-04-10T01:18:03;102045.59;;;7.92;85.72
67840;BME280;54636;51.684;5.142;2023-04-10T01:20:30;102042.13;;;7.92;86.39
67840;BME280;54636;51.684;5.142;2023-04-10T01:23:18;102037.06;;;7.94;85.67
67840;BME280;54636;51.684;5.142;2023-04-10T01:26:03;102039.84;;;7.90;85.92
67840;BME280;54636;51.684;5.142;2023-04-10T01:28:55;102036.50;;;7.86;86.17
67840;BME280;54636;51.684;5.142;2023-04-10T01:31:38;102020.81;;;7.81;86.16
67840;BME280;54636;51.684;5.142;2023-04-10T01:34:14;102016.81;;;7.73;86.93
67840;BME280;54636;51.684;5.142;2023-04-10T01:37:07;102016.81;;;7.73;86.59
67840;BME280;54636;51.684;5.142;2023-04-10T01:39:37;101999.06;;;7.59;87.15
67840;BME280;54636;51.684;5.142;2023-04-10T01:42:04;102009.25;;;7.68;87.24
67840;BME280;54636;51.684;5.142;2023-04-10T01:44:31;102004.78;;;7.62;87.72
67840;BME280;54636;51.684;5.142;2023-04-10T01:46:59;101995.38;;;7.53;87.45
67840;BME280;54636;51.684;5.142;2023-04-10T01:49:27;102004.91;;;7.58;87.75
67840;BME280;54636;51.684;5.142;2023-04-10T01:51:54;101991.69;;;7.47;88.15
67840;BME280;54636;51.684;5.142;2023-04-10T01:54:25;102002.63;;;7.56;87.97
67840;BME280;54636;51.684;5.142;2023-04-10T01:56:51;101978.91;;;7.48;88.23
67840;BME280;54636;51.684;5.142;2023-04-10T01:59:17;101994.19;;;7.54;88.33
67840;BME280;54636;51.684;5.142;2023-04-10T02:01:43;101982.47;;;7.45;87.58
67840;BME280;54636;51.684;5.142;2023-04-10T02:04:08;101985.31;;;7.54;87.92
67840;BME280;54636;51.684;5.142;2023-04-10T02:06:45;101985.31;;;7.54;88.45
67840;BME280;54636;51.684;5.142;2023-04-10T02:12:09;101976.97;;;7.48;87.62
67840;BME280;54636;51.684;5.142;2023-04-10T02:14:40;101981.09;;;7.53;88.07
67840;BME280;54636;51.684;5.142;2023-04-10T02:17:08;101961.91;;;7.35;88.02
67840;BME280;54636;51.684;5.142;2023-04-10T02:19:36;101936.28;;;7.14;88.35
67840;BME280;54636;51.684;5.142;2023-04-10T02:22:04;101976.00;;;7.42;88.08
67840;BME280;54636;51.684;5.142;2023-04-10T02:24:31;101979.03;;;7.44;88.01
67840;BME280;54636;51.684;5.142;2023-04-10T02:26:57;101960.84;;;7.32;88.04
67840;BME280;54636;51.684;5.142;2023-04-10T02:29:22;101959.31;;;7.31;87.90
67840;BME280;54636;51.684;5.142;2023-04-10T02:31:48;101968.63;;;7.43;88.15
67840;BME280;54636;51.684;5.142;2023-04-10T02:34:14;101977.19;;;7.41;87.92
67840;BME280;54636;51.684;5.142;2023-04-10T02:36:39;101967.31;;;7.35;88.38
67840;BME280;54636;51.684;5.142;2023-04-10T02:39:05;101952.69;;;7.19;89.33
67840;BME280;54636;51.684;5.142;2023-04-10T02:41:32;101969.69;;;7.33;88.20
67840;BME280;54636;51.684;5.142;2023-04-10T02:43:57;101975.53;;;7.31;88.88
67840;BME280;54636;51.684;5.142;2023-04-10T02:46:23;101970.75;;;7.22;89.56
67840;BME280;54636;51.684;5.142;2023-04-10T02:48:48;101955.63;;;7.12;88.81
67840;BME280;54636;51.684;5.142;2023-04-10T02:51:14;101979.63;;;7.23;88.73
67840;BME280;54636;51.684;5.142;2023-04-10T02:53:39;101971.19;;;7.21;89.69
67840;BME280;54636;51.684;5.142;2023-04-10T02:56:05;101977.09;;;7.16;89.12
67840;BME280;54636;51.684;5.142;2023-04-10T02:58:31;101964.75;;;7.02;89.10
67840;BME280;54636;51.684;5.142;2023-04-10T03:00:56;101969.97;;;7.09;89.86
67840;BME280;54636;51.684;5.142;2023-04-10T03:03:22;101970.84;;;7.06;90.29
67840;BME280;54636;51.684;5.142;2023-04-10T03:05:47;101972.09;;;7.02;89.28
67840;BME280;54636;51.684;5.142;2023-04-10T03:08:14;101974.06;;;7.01;90.49
67840;BME280;54636;51.684;5.142;2023-04-10T03:10:41;101968.84;;;6.94;89.88
67840;BME280;54636;51.684;5.142;2023-04-10T03:13:07;101978.47;;;6.95;90.29
67840;BME280;54636;51.684;5.142;2023-04-10T03:15:32;101982.00;;;6.92;90.32
67840;BME280;54636;51.684;5.142;2023-04-10T03:17:58;101985.22;;;6.87;89.86
67840;BME280;54636;51.684;5.142;2023-04-10T03:20:23;101970.66;;;6.68;90.02
67840;BME280;54636;51.684;5.142;2023-04-10T03:22:49;101947.06;;;6.56;91.40
67840;BME280;54636;51.684;5.142;2023-04-10T03:25:15;101968.31;;;6.70;92.44
67840;BME280;54636;51.684;5.142;2023-04-10T03:27:40;101970.25;;;6.70;91.80
67840;BME280;54636;51.684;5.142;2023-04-10T03:30:06;101958.88;;;6.62;91.57
67840;BME280;54636;51.684;5.142;2023-04-10T03:32:32;101971.09;;;6.67;92.50
67840;BME280;54636;51.684;5.142;2023-04-10T03:34:57;101970.41;;;6.63;92.18
67840;BME280;54636;51.684;5.142;2023-04-10T03:37:23;101951.28;;;6.57;92.25
67840;BME280;54636;51.684;5.142;2023-04-10T03:39:48;101952.78;;;6.58;92.41
67840;BME280;54636;51.684;5.142;2023-04-10T03:42:14;101933.44;;;6.47;92.57
67840;BME280;54636;51.684;5.142;2023-04-10T03:44:39;101922.91;;;6.36;92.09
67840;BME280;54636;51.684;5.142;2023-04-10T03:47:05;101951.03;;;6.51;92.23
67840;BME280;54636;51.684;5.142;2023-04-10T03:49:30;101951.91;;;6.48;92.16
67840;BME280;54636;51.684;5.142;2023-04-10T03:51:55;101942.03;;;6.42;92.86
67840;BME280;54636;51.684;5.142;2023-04-10T03:54:21;101915.50;;;6.24;92.19
67840;BME280;54636;51.684;5.142;2023-04-10T03:56:46;101939.00;;;6.40;92.82
67840;BME280;54636;51.684;5.142;2023-04-10T03:59:11;101934.78;;;6.39;93.08
67840;BME280;54636;51.684;5.142;2023-04-10T04:01:37;101927.53;;;6.36;93.46
67840;BME280;54636;51.684;5.142;2023-04-10T04:04:03;101923.25;;;6.38;94.00
67840;BME280;54636;51.684;5.142;2023-04-10T04:06:29;101910.94;;;6.37;93.06
67840;BME280;54636;51.684;5.142;2023-04-10T04:08:55;101915.72;;;6.46;92.69
67840;BME280;54636;51.684;5.142;2023-04-10T04:11:20;101923.16;;;6.71;91.35
67840;BME280;54636;51.684;5.142;2023-04-10T04:13:46;101865.56;;;6.32;91.73
67840;BME280;54636;51.684;5.142;2023-04-10T04:16:11;101909.66;;;6.71;91.17
67840;BME280;54636;51.684;5.142;2023-04-10T04:18:37;101917.09;;;6.67;91.12
67840;BME280;54636;51.684;5.142;2023-04-10T04:21:02;101916.66;;;6.68;91.49
67840;BME280;54636;51.684;5.142;2023-04-10T04:23:27;101904.69;;;6.69;91.20
67840;BME280;54636;51.684;5.142;2023-04-10T04:25:53;101863.53;;;6.36;89.76
67840;BME280;54636;51.684;5.142;2023-04-10T04:28:20;101899.56;;;6.58;90.68
67840;BME280;54636;51.684;5.142;2023-04-10T04:30:46;101913.97;;;6.68;90.72
67840;BME280;54636;51.684;5.142;2023-04-10T04:33:11;101909.41;;;6.65;90.95
67840;BME280;54636;51.684;5.142;2023-04-10T04:35:36;101914.63;;;6.72;90.59
67840;BME280;54636;51.684;5.142;2023-04-10T04:38:02;101907.19;;;6.76;90.27
67840;BME280;54636;51.684;5.142;2023-04-10T04:40:27;101910.41;;;6.71;90.73
67840;BME280;54636;51.684;5.142;2023-04-10T04:42:53;101905.78;;;6.72;90.81
67840;BME280;54636;51.684;5.142;2023-04-10T04:45:18;101895.91;;;6.65;90.62
67840;BME280;54636;51.684;5.142;2023-04-10T04:47:46;101885.22;;;6.61;90.13
67840;BME280;54636;51.684;5.142;2023-04-10T04:50:11;101905.91;;;6.81;89.80
67840;BME280;54636;51.684;5.142;2023-04-10T04:52:36;101888.47;;;6.69;89.63
67840;BME280;54636;51.684;5.142;2023-04-10T04:55:02;101907.63;;;6.75;90.25
67840;BME280;54636;51.684;5.142;2023-04-10T04:57:27;101898.84;;;6.71;90.44
67840;BME280;54636;51.684;5.142;2023-04-10T04:59:52;101853.66;;;6.46;89.18
67840;BME280;54636;51.684;5.142;2023-04-10T05:02:18;101863.06;;;6.54;89.98
67840;BME280;54636;51.684;5.142;2023-04-10T05:04:46;101875.22;;;6.75;89.26
67840;BME280;54636;51.684;5.142;2023-04-10T05:07:11;101888.44;;;6.85;89.29
67840;BME280;54636;51.684;5.142;2023-04-10T05:09:37;101882.94;;;6.89;88.83
67840;BME280;54636;51.684;5.142;2023-04-10T05:12:02;101873.09;;;6.82;89.09
67840;BME280;54636;51.684;5.142;2023-04-10T05:14:28;101878.09;;;6.97;88.39
67840;BME280;54636;51.684;5.142;2023-04-10T05:16:53;101881.31;;;6.91;88.80
67840;BME280;54636;51.684;5.142;2023-04-10T05:19:18;101887.38;;;6.96;88.58
67840;BME280;54636;51.684;5.142;2023-04-10T05:21:44;101873.25;;;7.04;88.31
67840;BME280;54636;51.684;5.142;2023-04-10T05:24:09;101868.19;;;7.06;87.77
67840;BME280;54636;51.684;5.142;2023-04-10T05:26:34;101871.97;;;7.09;88.10
67840;BME280;54636;51.684;5.142;2023-04-10T05:29:00;101855.09;;;7.05;87.14
67840;BME280;54636;51.684;5.142;2023-04-10T05:31:25;101843.97;;;7.03;87.31
67840;BME280;54636;51.684;5.142;2023-04-10T05:33:50;101826.69;;;7.13;86.20
67840;BME280;54636;51.684;5.142;2023-04-10T05:36:16;101855.53;;;7.16;87.03
67840;BME280;54636;51.684;5.142;2023-04-10T05:38:42;101873.81;;;7.37;86.42
67840;BME280;54636;51.684;5.142;2023-04-10T05:41:08;101874.13;;;7.39;86.06
67840;BME280;54636;51.684;5.142;2023-04-10T05:43:33;101855.63;;;7.25;86.18
67840;BME280;54636;51.684;5.142;2023-04-10T05:45:58;101878.69;;;7.42;85.76
67840;BME280;54636;51.684;5.142;2023-04-10T05:48:24;101869.16;;;7.38;85.98
67840;BME280;54636;51.684;5.142;2023-04-10T05:50:50;101833.78;;;7.19;85.74
67840;BME280;54636;51.684;5.142;2023-04-10T05:53:18;101882.91;;;7.56;85.72
67840;BME280;54636;51.684;5.142;2023-04-10T05:55:44;101875.75;;;7.62;85.40
67840;BME280;54636;51.684;5.142;2023-04-10T05:58:09;101829.69;;;7.40;85.09
67840;BME280;54636;51.684;5.142;2023-04-10T06:00:35;101878.78;;;7.77;85.17
67840;BME280;54636;51.684;5.142;2023-04-10T06:03:02;101871.00;;;7.79;84.47
67840;BME280;54636;51.684;5.142;2023-04-10T06:05:27;101857.16;;;7.77;84.01
67840;BME280;54636;51.684;5.142;2023-04-10T06:07:53;101875.72;;;7.87;83.89
67840;BME280;54636;51.684;5.142;2023-04-10T06:10:18;101859.81;;;7.89;83.30
67840;BME280;54636;51.684;5.142;2023-04-10T06:12:44;101879.03;;;8.04;83.42
67840;BME280;54636;51.684;5.142;2023-04-10T06:15:10;101864.84;;;8.13;82.80
67840;BME280;54636;51.684;5.142;2023-04-10T06:17:43;101849.47;;;8.10;83.05
67840;BME280;54636;51.684;5.142;2023-04-10T06:20:08;101859.41;;;8.25;82.06
67840;BME280;54636;51.684;5.142;2023-04-10T06:22:34;101855.19;;;8.24;82.44
67840;BME280;54636;51.684;5.142;2023-04-10T06:25:00;101824.13;;;8.16;82.59
67840;BME280;54636;51.684;5.142;2023-04-10T06:27:26;101843.25;;;8.35;81.81
67840;BME280;54636;51.684;5.142;2023-04-10T06:29:52;101840.75;;;8.40;81.06
67840;BME280;54636;51.684;5.142;2023-04-10T06:32:17;101841.69;;;8.46;80.77
67840;BME280;54636;51.684;5.142;2023-04-10T06:34:42;101798.78;;;8.23;81.62
67840;BME280;54636;51.684;5.142;2023-04-10T06:37:08;101808.50;;;8.33;80.88
67840;BME280;54636;51.684;5.142;2023-04-10T06:39:33;101813.84;;;8.46;79.73
67840;BME280;54636;51.684;5.142;2023-04-10T06:41:59;101815.22;;;8.50;80.94
67840;BME280;54636;51.684;5.142;2023-04-10T06:44:25;101821.34;;;8.64;80.60
67840;BME280;54636;51.684;5.142;2023-04-10T06:46:50;101802.38;;;8.64;79.66
67840;BME280;54636;51.684;5.142;2023-04-10T06:49:16;101798.41;;;8.77;78.81
67840;BME280;54636;51.684;5.142;2023-04-10T06:51:41;101774.09;;;8.65;79.22
67840;BME280;54636;51.684;5.142;2023-04-10T06:54:06;101796.19;;;8.85;78.97
67840;BME280;54636;51.684;5.142;2023-04-10T06:56:32;101800.75;;;8.97;79.00
67840;BME280;54636;51.684;5.142;2023-04-10T06:58:57;101803.38;;;9.10;77.54
67840;BME280;54636;51.684;5.142;2023-04-10T07:01:22;101796.31;;;9.21;77.08
67840;BME280;54636;51.684;5.142;2023-04-10T07:03:48;101785.34;;;9.25;75.84
67840;BME280;54636;51.684;5.142;2023-04-10T07:06:13;101782.03;;;9.30;76.48
67840;BME280;54636;51.684;5.142;2023-04-10T07:08:39;101772.41;;;9.29;76.20
67840;BME280;54636;51.684;5.142;2023-04-10T07:11:05;101762.94;;;9.43;75.58
67840;BME280;54636;51.684;5.142;2023-04-10T07:13:30;101765.06;;;9.48;75.61
67840;BME280;54636;51.684;5.142;2023-04-10T07:15:56;101743.38;;;9.48;75.37
67840;BME280;54636;51.684;5.142;2023-04-10T07:18:21;101770.09;;;9.68;74.60
67840;BME280;54636;51.684;5.142;2023-04-10T07:20:47;101766.00;;;9.81;73.12
67840;BME280;54636;51.684;5.142;2023-04-10T07:23:12;101760.88;;;9.93;74.26
67840;BME280;54636;51.684;5.142;2023-04-10T07:25:40;101754.41;;;10.08;71.86
67840;BME280;54636;51.684;5.142;2023-04-10T07:28:06;101730.13;;;10.05;71.47
67840;BME280;54636;51.684;5.142;2023-04-10T07:30:31;101759.53;;;10.34;72.19
67840;BME280;54636;51.684;5.142;2023-04-10T07:32:56;101739.09;;;10.47;70.51
67840;BME280;54636;51.684;5.142;2023-04-10T07:35:22;101716.59;;;10.56;70.80
67840;BME280;54636;51.684;5.142;2023-04-10T07:37:47;101734.34;;;10.75;69.75
67840;BME280;54636;51.684;5.142;2023-04-10T07:40:16;101716.50;;;10.83;68.43
67840;BME280;54636;51.684;5.142;2023-04-10T07:42:41;101732.91;;;11.22;68.45
67840;BME280;54636;51.684;5.142;2023-04-10T07:45:07;101707.00;;;11.36;66.25
67840;BME280;54636;51.684;5.142;2023-04-10T07:47:32;101702.09;;;11.64;65.93
67840;BME280;54636;51.684;5.142;2023-04-10T07:49:58;101714.66;;;12.00;65.34
67840;BME280;54636;51.684;5.142;2023-04-10T07:52:23;101709.22;;;12.29;64.09
67840;BME280;54636;51.684;5.142;2023-04-10T07:54:50;101688.63;;;12.43;62.15
67840;BME280;54636;51.684;5.142;2023-04-10T07:57:15;101715.38;;;12.59;61.27
67840;BME280;54636;51.684;5.142;2023-04-10T07:59:40;101713.50;;;12.65;61.39
67840;BME280;54636;51.684;5.142;2023-04-10T08:02:06;101709.91;;;12.74;61.59
67840;BME280;54636;51.684;5.142;2023-04-10T08:04:31;101710.03;;;12.65;61.44
67840;BME280;54636;51.684;5.142;2023-04-10T08:06:57;101688.34;;;12.41;60.60
67840;BME280;54636;51.684;5.142;2023-04-10T08:09:22;101701.22;;;12.55;61.82
67840;BME280;54636;51.684;5.142;2023-04-10T08:11:47;101684.00;;;12.49;61.09
67840;BME280;54636;51.684;5.142;2023-04-10T08:14:13;101697.81;;;12.60;61.15
67840;BME280;54636;51.684;5.142;2023-04-10T08:16:38;101691.69;;;12.65;61.59
67840;BME280;54636;51.684;5.142;2023-04-10T08:19:04;101695.91;;;12.81;60.94
67840;BME280;54636;51.684;5.142;2023-04-10T08:21:30;101697.13;;;13.00;60.53
67840;BME280;54636;51.684;5.142;2023-04-10T08:24:00;101696.91;;;13.18;59.96
67840;BME280;54636;51.684;5.142;2023-04-10T08:26:26;101696.78;;;13.28;59.71
67840;BME280;54636;51.684;5.142;2023-04-10T08:28:54;101685.13;;;13.27;58.29
67840;BME280;54636;51.684;5.142;2023-04-10T08:31:21;101689.28;;;13.23;58.46
67840;BME280;54636;51.684;5.142;2023-04-10T08:33:47;101666.53;;;13.11;60.14
67840;BME280;54636;51.684;5.142;2023-04-10T08:36:13;101673.59;;;13.17;59.45
67840;BME280;54636;51.684;5.142;2023-04-10T08:38:42;101677.72;;;13.13;59.40
67840;BME280;54636;51.684;5.142;2023-04-10T08:41:11;101671.44;;;13.07;59.45
67840;BME280;54636;51.684;5.142;2023-04-10T08:43:37;101677.44;;;13.11;60.22
67840;BME280;54636;51.684;5.142;2023-04-10T08:46:03;101679.63;;;13.07;60.25
67840;BME280;54636;51.684;5.142;2023-04-10T08:48:54;101663.94;;;13.02;61.25
67840;BME280;54636;51.684;5.142;2023-04-10T08:51:26;101658.00;;;13.03;60.48
67840;BME280;54636;51.684;5.142;2023-04-10T08:53:59;101655.00;;;13.01;60.59
67840;BME280;54636;51.684;5.142;2023-04-10T08:56:31;101650.53;;;12.98;60.97
67840;BME280;54636;51.684;5.142;2023-04-10T08:58:58;101612.34;;;12.78;59.73
67840;BME280;54636;51.684;5.142;2023-04-10T09:01:23;101633.63;;;12.94;60.81
67840;BME280;54636;51.684;5.142;2023-04-10T09:03:49;101650.91;;;13.11;60.84
67840;BME280;54636;51.684;5.142;2023-04-10T09:06:15;101633.94;;;13.02;60.78
67840;BME280;54636;51.684;5.142;2023-04-10T09:08:41;101650.31;;;13.22;60.44
67840;BME280;54636;51.684;5.142;2023-04-10T09:11:06;101639.06;;;13.35;60.80
67840;BME280;54636;51.684;5.142;2023-04-10T09:16:03;101647.22;;;13.55;59.89
67840;BME280;54636;51.684;5.142;2023-04-10T09:21:11;101611.59;;;13.64;60.55
67840;BME280;54636;51.684;5.142;2023-04-10T09:23:36;101630.19;;;13.92;58.53
67840;BME280;54636;51.684;5.142;2023-04-10T09:28:56;101627.25;;;13.95;59.25
67840;BME280;54636;51.684;5.142;2023-04-10T09:31:36;101594.63;;;13.86;59.61
67840;BME280;54636;51.684;5.142;2023-04-10T09:36:35;101609.34;;;14.26;58.22
67840;BME280;54636;51.684;5.142;2023-04-10T09:39:05;101607.38;;;14.32;57.28
67840;BME280;54636;51.684;5.142;2023-04-10T09:41:30;101611.13;;;14.34;56.33
67840;BME280;54636;51.684;5.142;2023-04-10T09:44:10;101596.88;;;14.19;58.32
67840;BME280;54636;51.684;5.142;2023-04-10T09:46:36;101605.66;;;14.34;57.09
67840;BME280;54636;51.684;5.142;2023-04-10T09:49:01;101603.03;;;14.45;57.39
67840;BME280;54636;51.684;5.142;2023-04-10T09:51:33;101599.91;;;14.64;56.98
67840;BME280;54636;51.684;5.142;2023-04-10T09:54:01;101578.78;;;14.64;56.06
67840;BME280;54636;51.684;5.142;2023-04-10T09:56:28;101572.91;;;14.88;56.47
67840;BME280;54636;51.684;5.142;2023-04-10T09:58:57;101581.44;;;15.12;56.58
67840;BME280;54636;51.684;5.142;2023-04-10T10:01:26;101575.00;;;15.27;55.27
67840;BME280;54636;51.684;5.142;2023-04-10T10:04:00;101573.03;;;15.27;54.85
67840;BME280;54636;51.684;5.142;2023-04-10T10:06:26;101552.09;;;15.19;54.32
67840;BME280;54636;51.684;5.142;2023-04-10T10:08:52;101547.16;;;15.28;54.69
67840;BME280;54636;51.684;5.142;2023-04-10T10:11:20;101540.94;;;15.44;53.82
67840;BME280;54636;51.684;5.142;2023-04-10T10:13:49;101554.41;;;15.65;53.49
67840;BME280;54636;51.684;5.142;2023-04-10T10:16:28;101538.97;;;15.84;53.91
67840;BME280;54636;51.684;5.142;2023-04-10T10:19:11;101543.69;;;16.00;53.34
67840;BME280;54636;51.684;5.142;2023-04-10T10:21:42;101555.13;;;16.21;52.60
67840;BME280;54636;51.684;5.142;2023-04-10T10:24:08;101547.09;;;16.34;51.08
67840;BME280;54636;51.684;5.142;2023-04-10T10:26:36;101541.09;;;16.36;50.81
67840;BME280;54636;51.684;5.142;2023-04-10T10:29:05;101535.13;;;16.32;50.17
67840;BME280;54636;51.684;5.142;2023-04-10T10:31:33;101528.69;;;16.24;51.41
67840;BME280;54636;51.684;5.142;2023-04-10T10:34:01;101494.63;;;15.97;51.81
67840;BME280;54636;51.684;5.142;2023-04-10T10:36:30;101523.19;;;16.29;52.18
67840;BME280;54636;51.684;5.142;2023-04-10T10:39:23;101514.66;;;16.44;52.76
67840;BME280;54636;51.684;5.142;2023-04-10T10:42:02;101500.47;;;16.40;50.92
67840;BME280;54636;51.684;5.142;2023-04-10T10:44:48;101509.63;;;16.59;51.84
67840;BME280;54636;51.684;5.142;2023-04-10T10:47:21;101507.13;;;16.67;52.37
67840;BME280;54636;51.684;5.142;2023-04-10T10:50:01;101495.94;;;17.00;52.05
67840;BME280;54636;51.684;5.142;2023-04-10T10:52:36;101502.19;;;17.36;50.49
67840;BME280;54636;51.684;5.142;2023-04-10T10:57:50;101482.34;;;17.19;50.45
67840;BME280;54636;51.684;5.142;2023-04-10T11:00:16;101486.75;;;17.33;49.75
67840;BME280;54636;51.684;5.142;2023-04-10T11:02:42;101480.19;;;17.42;49.69
67840;BME280;54636;51.684;5.142;2023-04-10T11:05:08;101471.53;;;17.57;50.01
67840;BME280;54636;51.684;5.142;2023-04-10T11:10:58;101458.59;;;17.82;51.30
67840;BME280;54636;51.684;5.142;2023-04-10T11:13:23;101441.81;;;17.85;49.24
67840;BME280;54636;51.684;5.142;2023-04-10T11:15:50;101421.56;;;17.88;49.04
67840;BME280;54636;51.684;5.142;2023-04-10T11:18:16;101439.88;;;18.23;47.69
67840;BME280;54636;51.684;5.142;2023-04-10T11:21:22;101447.38;;;18.23;49.60
67840;BME280;54636;51.684;5.142;2023-04-10T11:28:57;101422.41;;;18.58;47.17
67840;BME280;54636;51.684;5.142;2023-04-10T11:31:23;101419.09;;;18.65;46.06
67840;BME280;54636;51.684;5.142;2023-04-10T11:36:24;101425.94;;;18.78;46.82
67840;BME280;54636;51.684;5.142;2023-04-10T11:41:20;101403.03;;;18.69;46.60
67840;BME280;54636;51.684;5.142;2023-04-10T11:43:50;101398.91;;;18.57;45.75
67840;BME280;54636;51.684;5.142;2023-04-10T11:46:16;101416.63;;;18.43;46.36
67840;BME280;54636;51.684;5.142;2023-04-10T11:48:41;101405.16;;;18.39;46.96
67840;BME280;54636;51.684;5.142;2023-04-10T11:51:11;101394.69;;;18.56;46.83
67840;BME280;54636;51.684;5.142;2023-04-10T11:53:38;101380.41;;;18.58;46.74
67840;BME280;54636;51.684;5.142;2023-04-10T11:56:04;101375.13;;;18.79;46.57
67840;BME280;54636;51.684;5.142;2023-04-10T11:58:32;101384.03;;;18.85;47.30
67840;BME280;54636;51.684;5.142;2023-04-10T12:01:03;101386.59;;;18.96;47.57
67840;BME280;54636;51.684;5.142;2023-04-10T12:03:36;101378.16;;;19.07;46.37
67840;BME280;54636;51.684;5.142;2023-04-10T12:06:03;101374.84;;;18.95;46.57
67840;BME280;54636;51.684;5.142;2023-04-10T12:08:33;101370.47;;;18.87;45.73
67840;BME280;54636;51.684;5.142;2023-04-10T12:10:59;101369.50;;;18.71;45.77
67840;BME280;54636;51.684;5.142;2023-04-10T12:13:26;101359.09;;;18.45;47.57
67840;BME280;54636;51.684;5.142;2023-04-10T12:15:52;101356.56;;;18.47;47.21
67840;BME280;54636;51.684;5.142;2023-04-10T12:18:19;101356.03;;;18.30;48.13
67840;BME280;54636;51.684;5.142;2023-04-10T12:20:46;101358.78;;;18.30;47.16
67840;BME280;54636;51.684;5.142;2023-04-10T12:23:11;101342.78;;;18.15;48.13
67840;BME280;54636;51.684;5.142;2023-04-10T12:25:38;101335.34;;;18.10;47.68
67840;BME280;54636;51.684;5.142;2023-04-10T12:28:04;101322.63;;;17.88;48.30
67840;BME280;54636;51.684;5.142;2023-04-10T12:30:29;101329.16;;;17.85;48.69
67840;BME280;54636;51.684;5.142;2023-04-10T12:32:55;101313.03;;;17.76;48.22
67840;BME280;54636;51.684;5.142;2023-04-10T12:35:36;101301.69;;;17.61;48.40
67840;BME280;54636;51.684;5.142;2023-04-10T12:38:02;101311.13;;;17.47;48.80
67840;BME280;54636;51.684;5.142;2023-04-10T12:40:28;101304.94;;;17.40;49.67
67840;BME280;54636;51.684;5.142;2023-04-10T12:42:53;101310.59;;;17.24;50.15
67840;BME280;54636;51.684;5.142;2023-04-10T12:45:18;101300.72;;;17.15;49.77
67840;BME280;54636;51.684;5.142;2023-04-10T12:47:48;101299.03;;;17.06;50.75
67840;BME280;54636;51.684;5.142;2023-04-10T12:50:16;101307.78;;;17.05;50.12
67840;BME280;54636;51.684;5.142;2023-04-10T12:52:44;101301.16;;;16.95;50.44
67840;BME280;54636;51.684;5.142;2023-04-10T12:55:17;101301.50;;;16.86;50.75
67840;BME280;54636;51.684;5.142;2023-04-10T12:57:45;101281.84;;;16.82;50.88
67840;BME280;54636;51.684;5.142;2023-04-10T13:00:16;101281.94;;;16.70;51.21
67840;BME280;54636;51.684;5.142;2023-04-10T13:02:42;101276.50;;;16.65;51.68
67840;BME280;54636;51.684;5.142;2023-04-10T13:05:08;101286.66;;;16.70;51.64
67840;BME280;54636;51.684;5.142;2023-04-10T13:07:33;101263.75;;;16.67;51.61
67840;BME280;54636;51.684;5.142;2023-04-10T13:10:00;101276.72;;;16.67;52.15
67840;BME280;54636;51.684;5.142;2023-04-10T13:12:26;101249.81;;;16.60;51.99
67840;BME280;54636;51.684;5.142;2023-04-10T13:14:53;101262.50;;;16.63;51.60
67840;BME280;54636;51.684;5.142;2023-04-10T13:17:23;101262.84;;;16.54;52.40
67840;BME280;54636;51.684;5.142;2023-04-10T13:19:48;101263.81;;;16.56;52.96
67840;BME280;54636;51.684;5.142;2023-04-10T13:22:14;101227.28;;;16.42;56.69
67840;BME280;54636;51.684;5.142;2023-04-10T13:24:40;101220.50;;;16.49;54.87
67840;BME280;54636;51.684;5.142;2023-04-10T13:27:06;101233.03;;;16.74;54.92
67840;BME280;54636;51.684;5.142;2023-04-10T13:29:31;101211.25;;;16.82;54.33